Weather at Aalborg Airport

Public forecast

Using degrees Celsius for public forecast. Weather courtesy of forecast.io.

Current aviation weather report (METAR) for Aalborg Airport

Retrieved 2022/06/29 10:24 UTC (11 minutes ago):

EKYT 291024Z 25006KT 220V280 CAVOK 21/09 Q1020 RMK SKC

Aviation forecast (TAF) for Aalborg Airport

Retrieved 2022/06/29 09:31 UTC (1 hour ago):

TAF EKYT 290801Z 2909/3009 14007KT 9999 SCT040 BECMG 2921/2924 VRB02KT